createdAt,value
2017-07-25T00:02:07.595Z,93521.63
2017-07-25T00:04:35.446Z,93505.28
2017-07-25T00:07:03.125Z,93503.20
2017-07-25T00:09:30.980Z,93503.99
2017-07-25T00:11:58.807Z,93511.55
2017-07-25T00:14:26.560Z,93514.31
2017-07-25T00:16:54.338Z,93508.97
2017-07-25T00:19:22.121Z,93514.51
2017-07-25T00:21:49.923Z,93518.03
2017-07-25T00:24:17.740Z,93523.11
2017-07-25T00:26:45.526Z,93515.55
2017-07-25T00:29:13.266Z,93509.48
2017-07-25T00:31:41.005Z,93507.36
2017-07-25T00:34:08.798Z,93511.55
2017-07-25T00:36:36.629Z,93512.31
2017-07-25T00:39:04.476Z,93507.02
2017-07-25T00:41:32.186Z,93497.67
2017-07-25T00:43:59.931Z,93490.61
2017-07-25T00:46:27.697Z,93482.23
2017-07-25T00:48:55.406Z,93482.06
2017-07-25T00:51:23.184Z,93471.23
2017-07-25T00:53:50.853Z,93468.62
2017-07-25T00:56:18.545Z,93470.17
2017-07-25T00:58:46.325Z,93466.84
2017-07-25T01:01:14.073Z,93468.58
2017-07-25T01:03:41.778Z,93461.60
2017-07-25T01:06:09.633Z,93461.41
2017-07-25T01:08:37.446Z,93460.43
2017-07-25T01:11:05.145Z,93452.95
2017-07-25T01:13:32.911Z,93457.77
2017-07-25T01:16:00.605Z,93455.46
2017-07-25T01:18:28.355Z,93465.36
2017-07-25T01:20:56.108Z,93462.93
2017-07-25T01:23:23.851Z,93464.59
2017-07-25T01:25:51.531Z,93462.69
2017-07-25T01:28:19.240Z,93457.72
2017-07-25T01:30:47.025Z,93461.57
2017-07-25T01:33:14.733Z,93448.70
2017-07-25T01:35:42.434Z,93443.36
2017-07-25T01:38:10.202Z,93428.30
2017-07-25T01:40:37.952Z,93429.94
2017-07-25T01:43:05.674Z,93423.53
2017-07-25T01:45:33.446Z,93421.27
2017-07-25T01:48:01.429Z,93429.33
2017-07-25T01:50:29.338Z,93435.12
2017-07-25T01:52:57.125Z,93433.80
2017-07-25T01:55:24.933Z,93433.21
2017-07-25T01:57:52.653Z,93430.33
2017-07-25T02:00:20.442Z,93423.70
2017-07-25T02:02:48.252Z,93421.31
2017-07-25T02:05:15.929Z,93409.19
2017-07-25T02:07:43.646Z,93403.71
2017-07-25T02:10:11.420Z,93407.37
2017-07-25T02:12:39.127Z,93407.25
2017-07-25T02:15:06.975Z,93410.36
2017-07-25T02:17:34.792Z,93408.73
2017-07-25T02:20:02.571Z,93402.81
2017-07-25T02:22:30.319Z,93400.05
2017-07-25T02:24:58.048Z,93393.17
2017-07-25T02:27:25.796Z,93404.66
2017-07-25T02:29:53.638Z,93399.95
2017-07-25T02:32:21.546Z,93411.41
2017-07-25T02:34:49.289Z,93401.56
2017-07-25T02:37:18.239Z,93404.55
2017-07-25T02:39:45.994Z,93401.50
2017-07-25T02:42:13.872Z,93401.13
2017-07-25T02:44:41.617Z,93389.92
2017-07-25T02:47:09.396Z,93397.22
2017-07-25T02:49:37.145Z,93397.58
2017-07-25T02:52:04.989Z,93410.63
2017-07-25T02:54:32.861Z,93406.91
2017-07-25T02:57:00.681Z,93409.13
2017-07-25T02:59:28.498Z,93414.36
2017-07-25T03:01:56.198Z,93421.39
2017-07-25T03:04:24.870Z,93410.88
2017-07-25T03:06:52.672Z,93409.03
2017-07-25T03:09:20.438Z,93409.05
2017-07-25T03:11:48.168Z,93407.41
2017-07-25T03:14:15.852Z,93414.98
2017-07-25T03:16:43.605Z,93408.02
2017-07-25T03:19:11.420Z,93397.40
2017-07-25T03:21:39.134Z,93404.55
2017-07-25T03:24:06.912Z,93398.56
2017-07-25T03:26:34.626Z,93393.17
2017-07-25T03:29:02.411Z,93387.95
2017-07-25T03:31:30.103Z,93376.85
2017-07-25T03:33:57.961Z,93374.34
2017-07-25T03:36:25.688Z,93369.16
2017-07-25T03:38:53.782Z,93368.20
2017-07-25T03:41:21.561Z,93373.31
2017-07-25T03:43:49.260Z,93367.44
2017-07-25T03:46:16.970Z,93374.09
2017-07-25T03:48:44.737Z,93377.02
2017-07-25T03:51:12.534Z,93377.66
2017-07-25T03:53:40.240Z,93373.38
2017-07-25T03:56:08.021Z,93370.64
2017-07-25T03:58:35.672Z,93376.02
2017-07-25T04:01:03.369Z,93376.75
2017-07-25T04:03:31.131Z,93363.33
2017-07-25T04:05:58.861Z,93369.07
2017-07-25T04:08:26.706Z,93369.30
2017-07-25T04:10:54.501Z,93362.17
2017-07-25T04:13:22.239Z,93369.08
2017-07-25T04:15:49.996Z,93371.95
2017-07-25T04:18:17.778Z,93367.17
2017-07-25T04:20:45.517Z,93370.23
2017-07-25T04:23:13.271Z,93366.32
2017-07-25T04:25:40.976Z,93366.47
2017-07-25T04:28:08.739Z,93356.58
2017-07-25T04:30:36.442Z,93357.47
2017-07-25T04:33:04.161Z,93364.41
2017-07-25T04:35:31.944Z,93369.66
2017-07-25T04:37:59.656Z,93370.31
2017-07-25T04:40:27.437Z,93377.65
2017-07-25T04:42:55.198Z,93379.98
2017-07-25T04:45:22.877Z,93383.38
2017-07-25T04:47:50.652Z,93383.77
2017-07-25T04:50:18.405Z,93386.84
2017-07-25T04:52:47.001Z,93387.12
2017-07-25T04:55:14.803Z,93383.87
2017-07-25T04:57:42.561Z,93383.36
2017-07-25T05:00:10.271Z,93384.34
2017-07-25T05:02:38.038Z,93396.41
2017-07-25T05:05:05.836Z,93396.39
2017-07-25T05:07:33.541Z,93396.93
2017-07-25T05:10:01.244Z,93405.73
2017-07-25T05:12:29.069Z,93404.64
2017-07-25T05:14:56.841Z,93399.30
2017-07-25T05:17:24.581Z,93403.73
2017-07-25T05:19:52.350Z,93393.30
2017-07-25T05:22:20.148Z,93394.56
2017-07-25T05:24:47.951Z,93390.13
2017-07-25T05:27:15.697Z,93390.38
2017-07-25T05:29:43.513Z,93394.03
2017-07-25T05:32:11.215Z,93395.48
2017-07-25T05:34:38.982Z,93384.13
2017-07-25T05:37:06.811Z,93385.42
2017-07-25T05:39:34.692Z,93385.95
2017-07-25T05:42:02.398Z,93383.48
2017-07-25T05:44:30.152Z,93382.95
2017-07-25T05:46:58.546Z,93385.91
2017-07-25T05:49:26.276Z,93376.39
2017-07-25T05:51:54.040Z,93378.29
2017-07-25T05:54:21.857Z,93373.50
2017-07-25T05:56:49.560Z,93372.98
2017-07-25T05:59:17.281Z,93372.16
2017-07-25T06:01:45.043Z,93373.89
2017-07-25T06:04:12.803Z,93380.23
2017-07-25T06:06:40.589Z,93373.50
2017-07-25T06:09:08.304Z,93381.78
2017-07-25T06:11:36.026Z,93376.08
2017-07-25T06:14:03.791Z,93368.80
2017-07-25T06:16:31.500Z,93378.87
2017-07-25T06:18:59.242Z,93374.56
2017-07-25T06:21:26.990Z,93374.42
2017-07-25T06:23:54.750Z,93373.67
2017-07-25T06:26:22.835Z,93370.92
2017-07-25T06:28:50.521Z,93361.91
2017-07-25T06:31:18.253Z,93373.81
2017-07-25T06:33:46.079Z,93370.00
2017-07-25T06:36:13.852Z,93365.30
2017-07-25T06:38:41.597Z,93363.46
2017-07-25T06:41:09.306Z,93368.83
2017-07-25T06:43:37.044Z,93356.56
2017-07-25T06:46:04.757Z,93349.77
2017-07-25T06:48:32.625Z,93352.64
2017-07-25T06:51:00.312Z,93344.50
2017-07-25T06:53:28.098Z,93347.64
2017-07-25T06:55:55.858Z,93344.89
2017-07-25T06:58:23.693Z,93338.56
2017-07-25T07:00:51.378Z,93339.35
2017-07-25T07:03:19.164Z,93334.70
2017-07-25T07:05:46.875Z,93331.83
2017-07-25T07:08:14.684Z,93329.42
2017-07-25T07:10:42.453Z,93329.21
2017-07-25T07:13:10.216Z,93330.17
2017-07-25T07:15:37.970Z,93324.69
2017-07-25T07:18:05.804Z,93323.36
2017-07-25T07:20:33.583Z,93315.05
2017-07-25T07:23:01.336Z,93328.94
2017-07-25T07:25:29.046Z,93324.04
2017-07-25T07:27:56.871Z,93328.88
2017-07-25T07:30:24.589Z,93329.31
2017-07-25T07:32:52.350Z,93332.95
2017-07-25T07:35:20.058Z,93319.17
2017-07-25T07:37:47.902Z,93323.19
2017-07-25T07:40:15.658Z,93322.89
2017-07-25T07:42:43.397Z,93330.48
2017-07-25T07:45:11.148Z,93322.61
2017-07-25T07:47:38.853Z,93316.70
2017-07-25T07:50:06.595Z,93318.22
2017-07-25T07:52:34.395Z,93318.16
2017-07-25T07:55:02.266Z,93315.83
2017-07-25T07:57:30.131Z,93312.48
2017-07-25T07:59:57.898Z,93318.66
2017-07-25T08:02:25.590Z,93324.92
2017-07-25T08:04:53.356Z,93312.47
2017-07-25T08:07:21.065Z,93320.61
2017-07-25T08:09:48.829Z,93318.61
2017-07-25T08:12:16.742Z,93318.52
2017-07-25T08:14:44.508Z,93320.75
2017-07-25T08:17:12.307Z,93322.19
2017-07-25T08:19:40.009Z,93325.08
2017-07-25T08:22:07.749Z,93337.50
2017-07-25T08:24:35.547Z,93333.56
2017-07-25T08:27:03.257Z,93334.09
2017-07-25T08:29:31.066Z,93338.16
2017-07-25T08:31:58.766Z,93336.20
2017-07-25T08:34:26.597Z,93333.44
2017-07-25T08:36:54.298Z,93333.83
2017-07-25T08:39:22.008Z,93333.19
2017-07-25T08:41:49.794Z,93339.11
2017-07-25T08:44:17.516Z,93347.64
2017-07-25T08:46:45.294Z,93349.28
2017-07-25T08:49:13.006Z,93344.70
2017-07-25T08:51:41.584Z,93349.97
2017-07-25T08:54:09.344Z,93354.98
2017-07-25T08:56:37.187Z,93349.31
2017-07-25T08:59:04.949Z,93345.88
2017-07-25T09:01:32.653Z,93344.12
2017-07-25T09:04:00.467Z,93343.29
2017-07-25T09:06:28.195Z,93339.05
2017-07-25T09:08:55.982Z,93340.10
2017-07-25T09:11:23.683Z,93340.08
2017-07-25T09:13:51.487Z,93338.36
2017-07-25T09:16:19.287Z,93334.14
2017-07-25T09:18:47.106Z,93339.52
2017-07-25T09:21:14.832Z,93342.64
2017-07-25T09:23:58.182Z,93342.55
2017-07-25T09:26:25.953Z,93338.17
2017-07-25T09:28:53.666Z,93340.46
2017-07-25T09:31:21.360Z,93338.28
2017-07-25T09:33:49.168Z,93325.88
2017-07-25T09:36:16.971Z,93329.83
2017-07-25T09:38:44.721Z,93333.04
2017-07-25T09:41:12.533Z,93328.64
2017-07-25T09:43:40.310Z,93329.69
2017-07-25T09:46:08.090Z,93333.49
2017-07-25T09:48:35.845Z,93338.64
2017-07-25T09:51:03.680Z,93352.22
2017-07-25T09:53:31.503Z,93348.95
2017-07-25T09:55:59.236Z,93339.64
2017-07-25T09:58:28.046Z,93350.66
2017-07-25T10:00:55.877Z,93349.67
2017-07-25T10:03:23.569Z,93348.92
2017-07-25T10:05:51.345Z,93342.27
2017-07-25T10:08:19.231Z,93339.91
2017-07-25T10:10:47.016Z,93343.73
2017-07-25T10:13:14.851Z,93334.98
2017-07-25T10:15:42.542Z,93338.34
2017-07-25T10:18:10.347Z,93336.23
2017-07-25T10:20:38.033Z,93330.95
2017-07-25T10:23:05.727Z,93335.95
2017-07-25T10:25:33.496Z,93318.66
2017-07-25T10:28:01.493Z,93334.70
2017-07-25T10:30:29.290Z,93335.39
2017-07-25T10:32:57.002Z,93333.72
2017-07-25T10:35:24.691Z,93338.14
2017-07-25T10:37:53.595Z,93345.31
2017-07-25T10:40:21.379Z,93326.23
2017-07-25T10:42:49.172Z,93351.27
2017-07-25T10:45:17.193Z,93350.16
2017-07-25T10:47:44.939Z,93347.45
2017-07-25T10:50:12.635Z,93344.20
2017-07-25T10:52:40.333Z,93342.88
2017-07-25T10:55:08.162Z,93351.47
2017-07-25T10:57:35.868Z,93351.98
2017-07-25T11:00:04.489Z,93348.27
2017-07-25T11:02:32.683Z,93351.06
2017-07-25T11:05:00.496Z,93341.19
2017-07-25T11:07:28.174Z,93346.07
2017-07-25T11:09:55.939Z,93352.47
2017-07-25T11:12:23.749Z,93350.63
2017-07-25T11:14:51.524Z,93356.32
2017-07-25T11:17:19.238Z,93351.31
2017-07-25T11:19:47.028Z,93362.39
2017-07-25T11:22:14.827Z,93360.66
2017-07-25T11:24:42.538Z,93343.99
2017-07-25T11:27:10.254Z,93361.58
2017-07-25T11:29:38.010Z,93360.55
2017-07-25T11:32:05.719Z,93361.17
2017-07-25T11:34:33.663Z,93357.25
2017-07-25T11:37:01.401Z,93358.42
2017-07-25T11:39:29.124Z,93365.81
2017-07-25T11:41:56.840Z,93358.92
2017-07-25T11:44:24.566Z,93349.88
2017-07-25T11:46:52.340Z,93343.75
2017-07-25T11:49:20.059Z,93343.41
2017-07-25T11:51:47.898Z,93336.06
2017-07-25T11:54:15.630Z,93325.84
2017-07-25T11:56:43.434Z,93321.02
2017-07-25T11:59:11.149Z,93329.47
2017-07-25T12:01:38.921Z,93320.81
2017-07-25T12:04:06.682Z,93324.80
2017-07-25T12:06:34.424Z,93317.70
2017-07-25T12:09:02.325Z,93304.95
2017-07-25T12:11:30.120Z,93305.98
2017-07-25T12:13:57.892Z,93296.41
2017-07-25T12:16:25.621Z,93279.58
2017-07-25T12:18:53.367Z,93304.78
2017-07-25T12:21:47.896Z,93304.78
2017-07-25T12:24:15.666Z,93298.78
2017-07-25T12:26:43.493Z,93292.67
2017-07-25T12:29:11.363Z,93291.70
2017-07-25T12:31:39.065Z,93295.27
2017-07-25T12:34:06.800Z,93284.10
2017-07-25T12:36:35.497Z,93284.58
2017-07-25T12:39:03.290Z,93292.33
2017-07-25T12:41:31.013Z,93301.37
2017-07-25T12:43:58.772Z,93302.28
2017-07-25T12:46:26.519Z,93306.52
2017-07-25T12:48:54.311Z,93283.50
2017-07-25T12:51:22.091Z,93288.05
2017-07-25T12:53:50.012Z,93295.47
2017-07-25T12:56:17.783Z,93296.14
2017-07-25T12:58:45.540Z,93307.99
2017-07-25T13:01:25.276Z,93303.52
2017-07-25T13:03:54.385Z,93306.64
2017-07-25T13:06:22.170Z,93295.25
2017-07-25T13:08:49.983Z,93289.87
2017-07-25T13:11:17.690Z,93287.01
2017-07-25T13:13:45.481Z,93278.40
2017-07-25T13:16:13.270Z,93270.02
2017-07-25T13:18:40.980Z,93276.16
2017-07-25T13:21:08.724Z,93271.48
2017-07-25T13:23:36.502Z,93262.50
2017-07-25T13:26:04.298Z,93260.22
2017-07-25T13:28:32.138Z,93261.14
2017-07-25T13:31:00.030Z,93264.17
2017-07-25T13:33:27.856Z,93268.77
2017-07-25T13:35:55.652Z,93257.39
2017-07-25T13:38:23.460Z,93254.28
2017-07-25T13:40:51.178Z,93253.78
2017-07-25T13:43:18.932Z,93259.23
2017-07-25T13:45:46.695Z,93252.56
2017-07-25T13:48:14.486Z,93252.30
2017-07-25T13:50:42.206Z,93260.39
2017-07-25T13:53:09.974Z,93251.59
2017-07-25T13:55:37.779Z,93263.71
2017-07-25T13:58:05.517Z,93266.45
2017-07-25T14:00:33.231Z,93272.99
2017-07-25T14:03:01.103Z,93282.44
2017-07-25T14:05:28.802Z,93274.97
2017-07-25T14:07:56.510Z,93274.20
2017-07-25T14:10:24.246Z,93279.95
2017-07-25T14:12:51.980Z,93265.02
2017-07-25T14:15:19.889Z,93264.36
2017-07-25T14:17:47.597Z,93264.45
2017-07-25T14:20:15.291Z,93259.78
2017-07-25T14:22:43.172Z,93255.19
2017-07-25T14:25:10.865Z,93256.37
2017-07-25T14:27:38.570Z,93267.09
2017-07-25T14:30:06.321Z,93254.03
2017-07-25T14:32:34.063Z,93262.97
2017-07-25T14:35:01.830Z,93256.14
2017-07-25T14:37:29.538Z,93246.23
2017-07-25T14:39:57.334Z,93258.81
2017-07-25T14:42:25.047Z,93245.97
2017-07-25T14:44:52.750Z,93233.63
2017-07-25T14:47:21.057Z,93237.88
2017-07-25T14:49:48.773Z,93236.09
2017-07-25T14:52:16.550Z,93224.23
2017-07-25T14:54:44.281Z,93238.23
2017-07-25T14:57:12.059Z,93232.37
2017-07-25T14:59:39.819Z,93242.86
2017-07-25T15:02:07.569Z,93229.97
2017-07-25T15:04:35.362Z,93230.58
2017-07-25T15:07:03.133Z,93237.91
2017-07-25T15:09:32.062Z,93232.91
2017-07-25T15:11:59.800Z,93225.32
2017-07-25T15:14:27.648Z,93224.47
2017-07-25T15:16:55.370Z,93222.47
2017-07-25T15:19:23.053Z,93222.31
2017-07-25T15:21:50.845Z,93222.57
2017-07-25T15:24:18.593Z,93213.19
2017-07-25T15:26:46.413Z,93215.29
2017-07-25T15:29:14.124Z,93221.72
2017-07-25T15:31:43.088Z,93225.66
2017-07-25T15:34:10.820Z,93239.13
2017-07-25T15:36:38.692Z,93252.06
2017-07-25T15:39:06.509Z,93260.32
2017-07-25T15:41:34.282Z,93260.70
2017-07-25T15:44:01.992Z,93262.33
2017-07-25T15:46:29.792Z,93262.82
2017-07-25T15:48:58.618Z,93272.72
2017-07-25T15:51:26.429Z,93286.44
2017-07-25T15:53:54.183Z,93286.47
2017-07-25T15:56:22.047Z,93297.05
2017-07-25T15:58:49.824Z,93307.85
2017-07-25T16:01:17.525Z,93308.39
2017-07-25T16:03:45.232Z,93310.22
2017-07-25T16:06:12.972Z,93311.41
2017-07-25T16:08:40.705Z,93303.98
2017-07-25T16:11:08.429Z,93311.98
2017-07-25T16:13:37.011Z,93308.86
2017-07-25T16:16:04.782Z,93312.12
2017-07-25T16:18:32.533Z,93321.83
2017-07-25T16:21:00.256Z,93327.13
2017-07-25T16:23:28.028Z,93326.95
2017-07-25T16:25:55.805Z,93311.70
2017-07-25T16:28:23.515Z,93309.02
2017-07-25T16:30:51.299Z,93312.59
2017-07-25T16:33:19.070Z,93320.45
2017-07-25T16:35:46.782Z,93331.93
2017-07-25T16:38:14.730Z,93332.34
2017-07-25T16:40:42.582Z,93341.45
2017-07-25T16:43:10.416Z,93340.07
2017-07-25T16:45:38.157Z,93353.73
2017-07-25T16:48:05.863Z,93350.98
2017-07-25T16:50:33.620Z,93346.52
2017-07-25T16:53:01.331Z,93350.66
2017-07-25T16:55:29.033Z,93344.29
2017-07-25T16:57:56.891Z,93333.99
2017-07-25T17:00:24.647Z,93318.30
2017-07-25T17:02:52.445Z,93309.32
2017-07-25T17:05:20.228Z,93293.59
2017-07-25T17:07:47.951Z,93291.89
2017-07-25T17:10:15.811Z,93303.47
2017-07-25T17:12:43.564Z,93317.59
2017-07-25T17:15:11.302Z,93329.22
2017-07-25T17:17:39.054Z,93324.28
2017-07-25T17:20:06.784Z,93319.95
2017-07-25T17:22:34.467Z,93334.78
2017-07-25T17:25:02.275Z,93332.52
2017-07-25T17:27:29.999Z,93330.31
2017-07-25T17:29:57.749Z,93343.07
2017-07-25T17:32:25.585Z,93346.09
2017-07-25T17:34:53.345Z,93356.94
2017-07-25T17:37:21.024Z,93354.41
2017-07-25T17:39:48.821Z,93360.14
2017-07-25T17:42:16.590Z,93372.59
2017-07-25T17:44:44.686Z,93366.72
2017-07-25T17:47:12.431Z,93356.97
2017-07-25T17:49:40.142Z,93360.22
2017-07-25T17:52:07.898Z,93368.62
2017-07-25T17:54:35.835Z,93367.01
2017-07-25T17:57:03.537Z,93377.30
2017-07-25T17:59:31.551Z,93376.25
2017-07-25T18:01:59.416Z,93373.31
2017-07-25T18:04:27.502Z,93372.73
2017-07-25T18:06:55.295Z,93367.68
2017-07-25T18:09:23.167Z,93364.48
2017-07-25T18:11:51.124Z,93373.64
2017-07-25T18:14:18.927Z,93375.36
2017-07-25T18:16:46.807Z,93371.79
2017-07-25T18:19:14.807Z,93364.39
2017-07-25T18:21:42.853Z,93360.30
2017-07-25T18:24:10.772Z,93358.31
2017-07-25T18:26:38.799Z,93354.49
2017-07-25T18:29:06.597Z,93357.02
2017-07-25T18:31:35.119Z,93351.76
2017-07-25T18:34:02.939Z,93342.73
2017-07-25T18:36:30.930Z,93337.47
2017-07-25T18:38:58.970Z,93336.27
2017-07-25T18:41:26.744Z,93332.75
2017-07-25T18:43:54.699Z,93328.68
2017-07-25T18:46:22.874Z,93332.88
2017-07-25T18:48:50.646Z,93326.77
2017-07-25T18:51:18.567Z,93329.08
2017-07-25T18:53:46.607Z,93330.39
2017-07-25T18:56:14.570Z,93328.74
2017-07-25T18:58:43.376Z,93333.34
2017-07-25T19:01:12.028Z,93330.86
2017-07-25T19:03:40.681Z,93326.00
2017-07-25T19:06:08.435Z,93324.39
2017-07-25T19:08:36.270Z,93323.83
2017-07-25T19:11:05.221Z,93316.26
2017-07-25T19:13:32.976Z,93316.00
2017-07-25T19:16:00.732Z,93317.50
2017-07-25T19:18:28.628Z,93319.33
2017-07-25T19:20:56.755Z,93324.42
2017-07-25T19:23:24.538Z,93327.68
2017-07-25T19:25:52.487Z,93327.19
2017-07-25T19:28:21.433Z,93337.52
2017-07-25T19:30:49.334Z,93328.62
2017-07-25T19:33:17.216Z,93342.70
2017-07-25T19:35:45.343Z,93335.93
2017-07-25T19:38:13.146Z,93349.44
2017-07-25T19:40:41.079Z,93346.55
2017-07-25T19:43:10.567Z,93351.55
2017-07-25T19:45:38.421Z,93344.64
2017-07-25T19:48:07.347Z,93348.45
2017-07-25T19:50:35.349Z,93355.37
2017-07-25T19:53:03.306Z,93360.48
2017-07-25T19:55:31.231Z,93369.92
2017-07-25T19:57:59.106Z,93372.72
2017-07-25T20:00:27.730Z,93374.23
2017-07-25T20:02:55.650Z,93372.79
2017-07-25T20:05:23.385Z,93373.62
2017-07-25T20:07:51.121Z,93378.09
2017-07-25T20:10:18.900Z,93376.08
2017-07-25T20:12:46.685Z,93375.29
2017-07-25T20:15:14.455Z,93367.17
2017-07-25T20:17:42.228Z,93372.06
2017-07-25T20:20:09.999Z,93371.89
2017-07-25T20:22:37.793Z,93379.47
2017-07-25T20:25:05.517Z,93380.78
2017-07-25T20:27:33.346Z,93381.97
2017-07-25T20:30:01.033Z,93384.63
2017-07-25T20:32:28.755Z,93390.86
2017-07-25T20:34:57.405Z,93388.48
2017-07-25T20:37:25.094Z,93396.75
2017-07-25T20:39:52.888Z,93391.84
2017-07-25T20:42:20.639Z,93395.17
2017-07-25T20:44:48.399Z,93390.94
2017-07-25T20:47:16.175Z,93388.05
2017-07-25T20:49:43.946Z,93390.66
2017-07-25T20:52:11.701Z,93388.84
2017-07-25T20:54:39.464Z,93390.55
2017-07-25T20:57:07.303Z,93395.25
2017-07-25T20:59:35.019Z,93397.34
2017-07-25T21:02:02.742Z,93394.97
2017-07-25T21:04:30.524Z,93388.95
2017-07-25T21:06:58.290Z,93397.72
2017-07-25T21:09:26.064Z,93397.99
2017-07-25T21:11:53.819Z,93387.45
2017-07-25T21:14:22.573Z,93392.42
2017-07-25T21:16:50.280Z,93388.28
2017-07-25T21:19:18.068Z,93386.53
2017-07-25T21:21:45.834Z,93390.19
2017-07-25T21:24:13.570Z,93396.05
2017-07-25T21:26:41.747Z,93393.85
2017-07-25T21:29:09.466Z,93394.91
2017-07-25T21:31:37.320Z,93396.74
2017-07-25T21:34:05.036Z,93397.48
2017-07-25T21:36:32.746Z,93389.41
2017-07-25T21:39:01.456Z,93387.05
2017-07-25T21:41:29.176Z,93386.02
2017-07-25T21:43:57.006Z,93381.69
2017-07-25T21:46:24.809Z,93377.50
2017-07-25T21:48:52.567Z,93377.91
2017-07-25T21:51:20.341Z,93378.59
2017-07-25T21:53:48.156Z,93373.84
2017-07-25T21:56:16.571Z,93378.69
2017-07-25T21:58:44.275Z,93378.95
2017-07-25T22:01:23.660Z,93380.56
2017-07-25T22:04:03.192Z,93377.41
2017-07-25T22:06:30.959Z,93378.47
2017-07-25T22:08:58.746Z,93372.41
2017-07-25T22:11:26.443Z,93379.52
2017-07-25T22:13:55.168Z,93376.38
2017-07-25T22:16:22.850Z,93372.06
2017-07-25T22:18:50.519Z,93378.08
2017-07-25T22:21:18.344Z,93367.61
2017-07-25T22:23:46.112Z,93362.23
2017-07-25T22:26:13.852Z,93360.50
2017-07-25T22:28:41.793Z,93358.58
2017-07-25T22:31:09.662Z,93349.02
2017-07-25T22:33:37.460Z,93349.81
2017-07-25T22:36:05.381Z,93343.52
2017-07-25T22:38:33.259Z,93347.24
2017-07-25T22:41:00.977Z,93342.50
2017-07-25T22:43:28.821Z,93337.44
2017-07-25T22:45:56.611Z,93342.28
2017-07-25T22:48:24.550Z,93333.13
2017-07-25T22:50:52.322Z,93328.29
2017-07-25T22:53:20.013Z,93327.11
2017-07-25T22:55:47.810Z,93328.42
2017-07-25T22:58:15.612Z,93323.45
2017-07-25T23:00:43.451Z,93322.56
2017-07-25T23:03:11.180Z,93322.05
2017-07-25T23:05:38.881Z,93324.14
2017-07-25T23:08:06.608Z,93319.95
2017-07-25T23:10:34.293Z,93320.87
2017-07-25T23:13:02.017Z,93312.80
2017-07-25T23:15:30.504Z,93314.49
2017-07-25T23:17:58.193Z,93320.90
2017-07-25T23:20:25.906Z,93318.80
2017-07-25T23:22:53.671Z,93322.86
2017-07-25T23:25:21.355Z,93317.89
2017-07-25T23:27:49.177Z,93319.45
2017-07-25T23:30:16.863Z,93314.59
2017-07-25T23:32:44.622Z,93316.29
2017-07-25T23:35:12.434Z,93313.67
2017-07-25T23:37:40.174Z,93311.06
2017-07-25T23:40:07.886Z,93318.12
2017-07-25T23:42:35.653Z,93313.58
2017-07-25T23:45:03.363Z,93311.06
2017-07-25T23:47:31.147Z,93315.50
2017-07-25T23:49:59.726Z,93311.09
2017-07-25T23:52:27.415Z,93315.11
2017-07-25T23:54:55.120Z,93306.38
2017-07-25T23:57:22.902Z,93309.89
2017-07-25T23:59:50.610Z,93301.03
